Airfield :
LOGIN :

Register | Disclaimer

   EN    FR    IT 

 










Legend :    VFR   Marginal VFR   IFR   Intensive IFR   Very Intensive IFR
Visi :
Ceiling :
>= 8 km
>= 3000ft
5 to 8 km
1000 to 3000 ft
1500m to 5 km
500 to 1000 ft
800 to 1500m
200 to 500 ft
< 800m
< 200 ft
Symbols :   Thunderstorms  Fog  Heavy snow  Heavy precipitations  Wind > 20 kt
SIGMETs :     Misc.  Thunderstorms  Icing  Turbulence  Mountain Waves  Volcanic Ashes






- Airport Elevation : 863 ft
- IATA code : ZAZ


LEZG - Zaragoza Aragon

CURRENT METAR :
  • 280830Z 30004KT 9999 BKN040 09/06 Q1020

EXPIRED METARs :
  • 280800Z 29003KT 260V320 9999 BKN045 09/06 Q1020
  • 280730Z 29005KT 260V320 9999 SCT050 09/06 Q1020
  • 280700Z 29008KT 9999 BKN050 09/06 Q1019
  • 280630Z 27011KT 9999 BKN050 09/07 Q1019
  • 280600Z 28012KT 9999 BKN045 09/07 Q1019
  • 280530Z 28013KT 9999 SCT050 08/06 Q1019

TAF AMD TAF LEZG
Valid from the 28 at 08:00 until the 29 at 06:00 UTC


280831Z 2808/2906 27014KT 9999 BKN040 TX14/2813Z TN07/2906Z
TEMPO 2808/2811 29004KT
TEMPO 2811/2817 30016G28KT



MET'MAP, your aeronautical weather chart ! - Copyright ORBIFLY December 2007 - Disclaimer

ORBIFLY MET'MAP TEAM :

Programming & Development : Alexandra Zaïnal
Original concept : Baudouin d'Aumeries
Technical & hardware support : Manuel Goepfert
Assistance : Marc-Olivier Méhu




SOURCES & CREDITS :

   NOAA